Time;durP1;ratioP1;P1;durP2;ratioP2;P2;SDS_P1;SDS_P2;PMS_P1;PMS_P2;Temp;Humidity;BMP_temperature;BMP_pressure;BME280_temperature;BME280_humidity;BME280_pressure;Samples;Min_cycle;Max_cycle;Signal;HPM_P1;HPM_P2
2022/05/17 00:02:12;;;;;;;3.00;1.90;;;14.60;99.90;;;;;;5090615;28;20032;-77
2022/05/17 00:04:38;;;;;;;4.95;2.08;;;14.50;99.90;;;;;;5057558;28;20542;-77
2022/05/17 00:07:05;;;;;;;5.95;2.30;;;14.50;99.90;;;;;;5074285;28;20464;-78
2022/05/17 00:09:32;;;;;;;3.00;1.95;;;14.50;99.90;;;;;;5091060;28;20163;-77
2022/05/17 00:11:59;;;;;;;6.25;2.45;;;14.40;99.90;;;;;;5091854;28;20043;-77
2022/05/17 00:14:25;;;;;;;3.83;1.70;;;14.40;99.90;;;;;;5111064;28;20086;-77
2022/05/17 00:16:51;;;;;;;3.90;1.50;;;14.40;99.90;;;;;;5079508;28;20048;-77
2022/05/17 00:19:20;;;;;;;4.70;1.90;;;14.40;99.90;;;;;;5093500;28;20509;-77
2022/05/17 00:21:47;;;;;;;6.55;2.88;;;14.30;99.90;;;;;;5111242;28;20048;-77
2022/05/17 00:24:14;;;;;;;6.10;2.38;;;14.30;99.90;;;;;;5110981;28;20036;-77
2022/05/17 00:26:40;;;;;;;4.20;1.98;;;14.20;99.90;;;;;;5077367;28;20035;-77
2022/05/17 00:29:06;;;;;;;;;;;14.30;99.90;;;;;;5109247;28;20039;-78
2022/05/17 00:31:33;;;;;;;4.80;1.90;;;14.20;99.90;;;;;;5094978;28;19965;-77
2022/05/17 00:33:59;;;;;;;4.97;2.10;;;14.30;99.90;;;;;;5110873;28;20075;-77
2022/05/17 00:36:25;;;;;;;5.55;1.95;;;14.20;99.90;;;;;;5094150;28;20139;-77
2022/05/17 00:38:51;;;;;;;7.53;2.95;;;14.20;99.90;;;;;;5110973;28;20051;-77
2022/05/17 00:41:17;;;;;;;7.75;2.92;;;14.20;99.90;;;;;;5111049;28;20509;-77
2022/05/17 00:46:50;;;;;;;7.90;3.15;;;14.10;99.90;;;;;;5090501;28;20052;-77
2022/05/17 00:49:35;;;;;;;8.93;3.10;;;14.10;99.90;;;;;;5082938;28;20051;-77
2022/05/17 00:52:06;;;;;;;6.78;2.97;;;14.10;99.90;;;;;;5074078;28;20379;-77
2022/05/17 00:54:33;;;;;;;10.52;3.00;;;14.20;99.90;;;;;;5090583;28;20044;-77
2022/05/17 00:57:20;;;;;;;9.43;3.22;;;14.20;99.90;;;;;;5056758;28;20058;-77
2022/05/17 00:59:48;;;;;;;8.65;3.20;;;14.10;99.90;;;;;;5091268;28;20514;-77
2022/05/17 01:02:14;;;;;;;7.20;3.15;;;14.10;99.90;;;;;;5110765;28;20051;-77
2022/05/17 01:04:41;;;;;;;4.93;2.53;;;14.10;99.90;;;;;;5110839;28;20386;-78
2022/05/17 01:07:14;;;;;;;7.57;3.03;;;14.10;99.90;;;;;;5110521;28;20055;-77
2022/05/17 01:09:39;;;;;;;4.38;2.63;;;14.10;99.90;;;;;;5110507;28;20166;-77
2022/05/17 01:12:05;;;;;;;7.15;2.70;;;14.00;99.90;;;;;;5092877;28;20126;-78
2022/05/17 01:17:16;;;;;;;5.85;2.47;;;14.10;99.90;;;;;;5110620;28;20079;-77
2022/05/17 01:19:44;;;;;;;5.70;2.60;;;14.00;99.90;;;;;;5110229;28;20076;-77
2022/05/17 01:22:10;;;;;;;6.45;2.80;;;14.00;99.90;;;;;;5110446;28;20097;-77
2022/05/17 01:24:36;;;;;;;5.38;2.58;;;14.00;99.90;;;;;;5091738;28;20039;-77
2022/05/17 01:27:11;;;;;;;6.00;2.30;;;13.90;99.90;;;;;;5090263;28;20075;-77
2022/05/17 01:29:43;;;;;;;3.03;1.95;;;13.90;99.90;;;;;;5090497;28;20399;-77
2022/05/17 01:32:11;;;;;;;6.20;2.55;;;13.90;99.90;;;;;;5089995;28;20555;-77
2022/05/17 01:34:37;;;;;;;3.05;1.67;;;13.90;99.90;;;;;;5104631;28;20129;-77
2022/05/17 01:37:04;;;;;;;3.50;1.52;;;13.90;99.90;;;;;;5093402;28;20040;-77
2022/05/17 01:39:31;;;;;;;3.90;1.65;;;13.80;99.90;;;;;;5100626;28;20040;-77
2022/05/17 01:41:57;;;;;;;7.30;2.80;;;13.80;99.90;;;;;;5076638;28;20070;-78
2022/05/17 01:44:23;;;;;;;7.40;2.80;;;13.80;99.90;;;;;;5093961;28;20486;-77
2022/05/17 01:46:49;;;;;;;6.35;2.72;;;13.80;99.90;;;;;;5079916;28;20039;-77
2022/05/17 01:49:15;;;;;;;;;;;13.80;99.90;;;;;;5077395;28;20495;-78
2022/05/17 01:51:41;;;;;;;5.75;2.72;;;13.80;99.90;;;;;;5093518;28;19931;-77
2022/05/17 01:54:06;;;;;;;6.13;2.47;;;13.80;99.90;;;;;;5109105;28;20062;-77
2022/05/17 01:56:33;;;;;;;3.72;1.80;;;13.80;99.90;;;;;;5113682;28;20043;-78
2022/05/17 01:58:59;;;;;;;3.85;1.80;;;13.80;99.90;;;;;;5113367;28;20058;-77
2022/05/17 02:01:25;;;;;;;6.53;2.22;;;13.80;99.90;;;;;;5113749;28;20046;-78
2022/05/17 02:03:51;;;;;;;6.50;2.38;;;13.80;99.90;;;;;;5096825;28;20047;-77
2022/05/17 02:06:18;;;;;;;4.60;2.03;;;13.80;99.90;;;;;;5095111;28;20123;-77
2022/05/17 02:08:43;;;;;;;;;;;13.70;99.90;;;;;;5121060;28;20043;-78
2022/05/17 02:11:09;;;;;;;7.90;2.17;;;13.70;99.90;;;;;;5119285;28;20425;-77
2022/05/17 02:13:35;;;;;;;3.58;1.58;;;13.70;99.90;;;;;;5120478;28;20112;-77
2022/05/17 02:16:05;;;;;;;2.78;1.42;;;13.70;99.90;;;;;;5120356;28;20056;-77
2022/05/17 02:18:31;;;;;;;3.70;1.80;;;13.70;99.90;;;;;;5098005;28;20039;-78
2022/05/17 02:20:56;;;;;;;2.13;1.02;;;13.60;99.90;;;;;;5106315;28;20043;-77
2022/05/17 02:23:22;;;;;;;3.75;1.33;;;13.60;99.90;;;;;;5095256;28;20126;-77
2022/05/17 02:25:48;;;;;;;5.60;2.10;;;13.60;99.90;;;;;;5096618;28;20034;-77
2022/05/17 02:28:13;;;;;;;4.20;1.60;;;13.60;99.90;;;;;;5093515;28;20040;-77
2022/05/17 02:30:43;;;;;;;3.67;1.60;;;13.50;99.90;;;;;;5076056;28;20050;-77
2022/05/17 02:33:10;;;;;;;5.57;2.10;;;13.50;99.90;;;;;;5093434;28;20105;-78
2022/05/17 02:35:36;;;;;;;6.07;2.53;;;13.50;99.90;;;;;;5089388;28;20050;-77
2022/05/17 02:38:02;;;;;;;6.40;2.50;;;13.50;99.90;;;;;;5092770;28;20185;-77
2022/05/17 02:40:28;;;;;;;6.00;2.53;;;13.50;99.90;;;;;;5101267;28;20039;-78
2022/05/17 02:42:54;;;;;;;5.53;2.10;;;13.50;99.90;;;;;;5112963;28;20440;-77
2022/05/17 02:45:20;;;;;;;2.85;1.40;;;13.40;99.90;;;;;;5096164;28;20692;-78
2022/05/17 02:47:45;;;;;;;3.65;1.60;;;13.40;99.90;;;;;;5079512;28;20092;-78
2022/05/17 02:50:11;;;;;;;3.20;1.30;;;13.40;99.90;;;;;;5110442;28;20051;-77
2022/05/17 02:52:39;;;;;;;2.20;1.20;;;13.40;99.90;;;;;;5093616;28;20387;-78
2022/05/17 02:55:06;;;;;;;4.43;1.33;;;13.30;99.90;;;;;;5092194;28;20069;-78
2022/05/17 02:57:32;;;;;;;5.93;1.90;;;13.30;99.90;;;;;;5075332;28;20059;-78
2022/05/17 02:59:58;;;;;;;3.95;1.95;;;13.30;99.90;;;;;;5075252;28;20410;-77
2022/05/17 03:02:25;;;;;;;3.17;1.70;;;13.30;99.90;;;;;;5075981;28;20032;-78
2022/05/17 03:04:51;;;;;;;5.95;2.10;;;13.30;99.90;;;;;;5076084;28;20096;-77
2022/05/17 03:07:17;;;;;;;4.20;2.22;;;13.30;99.90;;;;;;5093986;28;20403;-78
2022/05/17 03:09:42;;;;;;;4.38;1.70;;;13.30;99.90;;;;;;5092721;28;20130;-78
2022/05/17 03:12:09;;;;;;;3.35;1.50;;;13.30;99.90;;;;;;5103970;28;20043;-77
2022/05/17 03:14:35;;;;;;;2.65;1.25;;;13.20;99.90;;;;;;5112768;28;20135;-76
2022/05/17 03:17:15;;;;;;;3.38;1.33;;;13.10;99.90;;;;;;5078825;28;20054;-78
2022/05/17 03:19:42;;;;;;;3.90;1.90;;;13.10;99.90;;;;;;5111896;28;20039;-78
2022/05/17 03:22:08;;;;;;;3.92;1.77;;;13.10;99.90;;;;;;5111972;28;20093;-78
2022/05/17 03:24:34;;;;;;;4.03;1.80;;;13.20;99.90;;;;;;5110066;28;20036;-78
2022/05/17 03:27:00;;;;;;;3.58;1.50;;;13.10;99.90;;;;;;5112622;28;20042;-77
2022/05/17 03:29:27;;;;;;;3.25;1.20;;;13.10;99.90;;;;;;5093093;28;20487;-77
2022/05/17 03:31:52;;;;;;;;;;;13.00;99.90;;;;;;5107963;28;20051;-77
2022/05/17 03:34:18;;;;;;;3.15;1.30;;;13.00;99.90;;;;;;5112116;28;19920;-78
2022/05/17 03:36:45;;;;;;;2.22;1.20;;;13.00;99.90;;;;;;5094722;28;20044;-78
2022/05/17 03:39:10;;;;;;;2.17;1.10;;;13.00;99.90;;;;;;5107502;28;20132;-77
2022/05/17 03:41:36;;;;;;;2.15;1.10;;;13.00;99.90;;;;;;5057870;28;20036;-77
2022/05/17 03:44:03;;;;;;;2.20;1.10;;;13.00;99.90;;;;;;5091944;28;20036;-78
2022/05/17 03:46:28;;;;;;;3.03;1.27;;;12.90;99.90;;;;;;5074290;28;20048;-77
2022/05/17 03:48:54;;;;;;;2.53;1.10;;;13.00;99.90;;;;;;5091313;28;20047;-78
2022/05/17 03:51:20;;;;;;;2.28;1.30;;;12.90;99.90;;;;;;5091019;28;20043;-77
2022/05/17 03:53:49;;;;;;;1.65;1.17;;;12.90;99.90;;;;;;5091327;28;20055;-77
2022/05/17 03:56:16;;;;;;;2.90;1.10;;;12.90;99.90;;;;;;5092336;28;20040;-77
2022/05/17 03:58:43;;;;;;;3.15;1.00;;;12.80;99.90;;;;;;5090539;28;20059;-77
2022/05/17 04:01:10;;;;;;;1.88;1.02;;;12.90;99.90;;;;;;5090814;28;20048;-77
2022/05/17 04:03:37;;;;;;;2.95;1.45;;;12.90;99.90;;;;;;5073877;28;20043;-78
2022/05/17 04:06:03;;;;;;;3.45;1.55;;;12.90;99.90;;;;;;5074264;28;20058;-78
2022/05/17 04:08:29;;;;;;;;;;;12.90;99.90;;;;;;5091513;28;20075;-77
2022/05/17 04:10:55;;;;;;;3.83;1.98;;;13.00;99.90;;;;;;5107724;28;19965;-77
2022/05/17 04:13:21;;;;;;;3.67;1.50;;;13.00;99.90;;;;;;5111254;28;20055;-78
2022/05/17 04:15:46;;;;;;;4.40;1.65;;;13.00;99.90;;;;;;5111303;28;20043;-77
2022/05/17 04:18:12;;;;;;;3.55;1.80;;;13.10;99.90;;;;;;5093944;28;20122;-77
2022/05/17 04:20:37;;;;;;;3.72;1.58;;;13.20;99.90;;;;;;5098495;28;20074;-77
2022/05/17 04:23:04;;;;;;;2.90;1.33;;;13.20;99.90;;;;;;5090788;28;20492;-77
2022/05/17 04:25:29;;;;;;;6.10;1.65;;;13.30;99.90;;;;;;5091062;28;20499;-77
2022/05/17 04:27:56;;;;;;;4.32;1.67;;;13.40;99.90;;;;;;5090835;28;20036;-77
2022/05/17 04:30:22;;;;;;;;;;;13.40;99.90;;;;;;5090906;28;20201;-78
2022/05/17 04:32:48;;;;;;;5.70;2.50;;;13.50;99.90;;;;;;5090602;28;19963;-77
2022/05/17 04:35:14;;;;;;;;;;;13.70;99.90;;;;;;5091053;28;20062;-77
2022/05/17 04:37:40;;;;;;;5.50;2.08;;;13.80;99.90;;;;;;5090543;28;20014;-78
2022/05/17 04:40:08;;;;;;;8.77;2.85;;;13.80;99.90;;;;;;5090745;28;20147;-77
2022/05/17 04:42:43;;;;;;;7.70;3.10;;;13.90;99.90;;;;;;5090405;28;20047;-78
2022/05/17 04:45:13;;;;;;;8.73;3.30;;;14.00;99.90;;;;;;5090397;28;20109;-77
2022/05/17 04:47:40;;;;;;;7.85;2.97;;;14.20;99.90;;;;;;5090429;28;20036;-78
2022/05/17 04:50:05;;;;;;;;;;;14.30;99.90;;;;;;5074414;28;20076;-78
2022/05/17 04:52:31;;;;;;;7.40;2.65;;;14.40;99.90;;;;;;5090668;28;19927;-77
2022/05/17 04:54:57;;;;;;;6.63;2.40;;;14.50;99.90;;;;;;5090338;28;20467;-78
2022/05/17 04:57:23;;;;;;;9.88;3.45;;;14.60;99.90;;;;;;5090152;28;20043;-78
2022/05/17 04:59:48;;;;;;;11.50;3.20;;;14.60;99.90;;;;;;5089944;28;20064;-77
2022/05/17 05:02:14;;;;;;;8.15;2.65;;;14.70;99.90;;;;;;5073520;28;20561;-78
2022/05/17 05:04:40;;;;;;;7.00;2.92;;;14.70;99.90;;;;;;5090674;28;20037;-78
2022/05/17 05:07:06;;;;;;;6.55;2.20;;;14.80;99.90;;;;;;5073188;28;20075;-77
2022/05/17 05:09:32;;;;;;;5.75;2.30;;;14.80;99.90;;;;;;5090093;28;20074;-78
2022/05/17 05:11:59;;;;;;;6.75;2.50;;;14.80;99.90;;;;;;5090015;28;20044;-77
2022/05/17 05:14:25;;;;;;;10.75;3.05;;;14.80;99.90;;;;;;5057567;28;20131;-77
2022/05/17 05:16:51;;;;;;;6.63;2.85;;;14.80;99.90;;;;;;5076922;28;20083;-78
2022/05/17 05:19:16;;;;;;;8.57;2.90;;;14.80;99.90;;;;;;5093996;28;20090;-78
2022/05/17 05:21:42;;;;;;;10.90;3.17;;;14.70;99.90;;;;;;5077482;28;20039;-78
2022/05/17 05:24:10;;;;;;;6.53;2.10;;;14.70;99.90;;;;;;5077244;28;20032;-77
2022/05/17 05:26:37;;;;;;;6.82;2.30;;;14.80;99.90;;;;;;5093828;28;20488;-77
2022/05/17 05:29:03;;;;;;;5.35;2.58;;;14.80;99.90;;;;;;5093800;28;20044;-77
2022/05/17 05:31:29;;;;;;;5.88;2.30;;;14.70;99.90;;;;;;5077014;28;20036;-77
2022/05/17 05:33:55;;;;;;;7.25;2.90;;;14.80;99.90;;;;;;5077024;28;20122;-78
2022/05/17 05:36:21;;;;;;;3.55;1.90;;;14.80;99.90;;;;;;5077051;28;20052;-76
2022/05/17 05:38:47;;;;;;;6.05;2.97;;;14.80;99.90;;;;;;5077326;28;20455;-77
2022/05/17 05:41:13;;;;;;;9.15;2.92;;;14.80;99.90;;;;;;5094006;28;20040;-77
2022/05/17 05:43:39;;;;;;;;;;;14.80;99.90;;;;;;5094113;28;20040;-78
2022/05/17 05:46:05;;;;;;;6.75;3.28;;;14.90;99.90;;;;;;5093833;28;19920;-78
2022/05/17 05:48:31;;;;;;;5.85;2.60;;;15.00;99.90;;;;;;5093538;28;20418;-79
2022/05/17 05:50:57;;;;;;;;;;;15.20;99.90;;;;;;5094189;28;20054;-79
2022/05/17 05:53:23;;;;;;;6.68;2.53;;;15.20;99.90;;;;;;5093443;28;19916;-80
2022/05/17 05:55:50;;;;;;;5.80;2.40;;;15.40;99.90;;;;;;5077336;28;20143;-77
2022/05/17 05:58:17;;;;;;;3.40;1.67;;;15.60;99.90;;;;;;5094267;28;20625;-77
2022/05/17 06:00:43;;;;;;;4.15;1.60;;;15.70;99.90;;;;;;5093206;28;20123;-77
2022/05/17 06:03:09;;;;;;;6.20;2.10;;;15.90;99.90;;;;;;5093332;28;20119;-78
2022/05/17 06:05:36;;;;;;;3.90;1.98;;;16.00;99.90;;;;;;5094075;28;20213;-77
2022/05/17 06:08:03;;;;;;;7.32;2.10;;;16.30;99.90;;;;;;5093085;28;20510;-77
2022/05/17 06:10:29;;;;;;;5.57;2.70;;;16.50;99.90;;;;;;5094024;28;20051;-77
2022/05/17 06:12:55;;;;;;;;;;;16.60;99.90;;;;;;5104107;28;20489;-78
2022/05/17 06:15:20;;;;;;;6.93;2.35;;;16.60;99.90;;;;;;5113387;28;19915;-76
2022/05/17 06:17:46;;;;;;;7.25;2.65;;;16.70;99.90;;;;;;5113609;28;20131;-78
2022/05/17 06:20:12;;;;;;;6.32;2.47;;;16.60;99.90;;;;;;5113379;28;20394;-78
2022/05/17 06:22:38;;;;;;;7.72;2.72;;;16.80;99.90;;;;;;5113564;28;20385;-78
2022/05/17 06:25:05;;;;;;;;;;;16.80;99.90;;;;;;5113558;28;20067;-78
2022/05/17 06:27:31;;;;;;;8.93;2.92;;;16.90;99.90;;;;;;5096195;28;20290;-78
2022/05/17 06:29:56;;;;;;;10.77;3.13;;;17.00;99.90;;;;;;5112832;28;20032;-78
2022/05/17 06:32:22;;;;;;;11.40;3.65;;;17.00;99.90;;;;;;5112945;28;20071;-78
2022/05/17 06:34:48;;;;;;;;;;;16.90;99.90;;;;;;5096323;28;20035;-78
2022/05/17 06:37:14;;;;;;;8.40;2.63;;;16.90;99.90;;;;;;5113449;28;19922;-77
2022/05/17 06:39:40;;;;;;;8.05;2.80;;;17.00;99.90;;;;;;5112702;28;20079;-78
2022/05/17 06:42:07;;;;;;;6.47;2.53;;;16.90;99.90;;;;;;5113055;28;20082;-78
2022/05/17 06:44:32;;;;;;;9.80;2.90;;;17.00;99.90;;;;;;5112520;28;20050;-78
2022/05/17 06:46:58;;;;;;;7.78;2.42;;;17.00;99.90;;;;;;5112505;28;20039;-78
2022/05/17 06:49:26;;;;;;;7.38;2.50;;;17.10;99.90;;;;;;5112404;28;20501;-78
2022/05/17 06:51:52;;;;;;;12.02;2.90;;;17.10;99.90;;;;;;5078808;28;20051;-78
2022/05/17 06:54:18;;;;;;;8.70;2.80;;;17.00;99.90;;;;;;5095618;28;20048;-78
2022/05/17 06:56:44;;;;;;;;;;;17.10;99.90;;;;;;5113234;28;20035;-78
2022/05/17 06:59:09;;;;;;;8.30;2.53;;;17.30;99.90;;;;;;5112262;28;19931;-77
2022/05/17 07:01:35;;;;;;;9.70;2.90;;;17.40;99.90;;;;;;5112247;28;20054;-78
2022/05/17 07:04:01;;;;;;;8.23;2.28;;;17.50;99.90;;;;;;5112184;28;20041;-78
2022/05/17 07:06:27;;;;;;;9.40;2.38;;;17.60;99.90;;;;;;5112113;28;20039;-78
2022/05/17 07:08:53;;;;;;;6.20;1.95;;;17.60;99.90;;;;;;5097206;28;20047;-79
2022/05/17 07:14:04;;;;;;;6.75;2.05;;;18.00;99.90;;;;;;5097776;28;20062;-78
2022/05/17 07:16:30;;;;;;;6.00;2.10;;;18.20;99.90;;;;;;5112701;28;20039;-78
2022/05/17 07:18:55;;;;;;;;;;;18.20;99.90;;;;;;5113238;28;20043;-78
2022/05/17 07:21:21;;;;;;;10.15;3.00;;;18.60;99.90;;;;;;5111948;28;20417;-78
2022/05/17 07:23:46;;;;;;;9.27;2.60;;;18.60;99.90;;;;;;5095116;28;20040;-78
2022/05/17 07:26:13;;;;;;;7.28;2.40;;;18.70;99.90;;;;;;5111812;28;20074;-78
2022/05/17 07:28:45;;;;;;;5.85;2.05;;;18.70;99.90;;;;;;5112152;28;20126;-78
2022/05/17 07:31:11;;;;;;;6.95;2.53;;;18.80;99.90;;;;;;5111812;28;20050;-78
2022/05/17 07:33:38;;;;;;;6.40;2.20;;;18.70;99.90;;;;;;5095194;28;20044;-78
2022/05/17 07:36:05;;;;;;;11.05;2.90;;;18.80;99.90;;;;;;5111755;28;20047;-77
2022/05/17 07:38:32;;;;;;;10.68;3.00;;;18.60;99.90;;;;;;5111242;28;20065;-78
2022/05/17 07:40:57;;;;;;;13.23;3.30;;;18.70;99.90;;;;;;5095000;28;20040;-77
2022/05/17 07:43:23;;;;;;;;;;;18.80;99.90;;;;;;5112688;28;20091;-78
2022/05/17 07:45:52;;;;;;;9.70;2.80;;;19.10;99.90;;;;;;5078111;28;20326;-78
2022/05/17 07:48:19;;;;;;;11.32;2.97;;;19.20;99.90;;;;;;5111856;28;20509;-77
2022/05/17 07:50:46;;;;;;;6.70;2.72;;;19.50;99.90;;;;;;5111811;28;20047;-78
2022/05/17 07:53:14;;;;;;;7.53;2.47;;;19.70;99.90;;;;;;5111566;28;20074;-77
2022/05/17 07:55:41;;;;;;;7.15;2.55;;;19.80;99.90;;;;;;5094420;28;20048;-77
2022/05/17 07:58:07;;;;;;;5.40;2.22;;;20.00;99.90;;;;;;5111651;28;20056;-78
2022/05/17 08:00:34;;;;;;;8.20;2.47;;;20.10;99.90;;;;;;5112752;28;20197;-78
2022/05/17 08:03:00;;;;;;;11.00;2.60;;;20.20;99.90;;;;;;5126144;28;20039;-77
2022/05/17 08:05:28;;;;;;;5.57;2.10;;;20.00;99.90;;;;;;5130432;28;20055;-78
2022/05/17 08:07:54;;;;;;;11.35;3.58;;;20.00;99.90;;;;;;5128084;28;20397;-78
2022/05/17 08:10:20;;;;;;;;;;;19.90;99.90;;;;;;5130739;28;20126;-77
2022/05/17 08:12:46;;;;;;;5.28;1.70;;;20.30;99.90;;;;;;5107477;28;19915;-77
2022/05/17 08:15:12;;;;;;;8.25;2.20;;;20.50;99.90;;;;;;5098386;28;20107;-77
2022/05/17 08:17:39;;;;;;;11.35;2.90;;;20.60;99.90;;;;;;5094955;28;20046;-78
2022/05/17 08:20:09;;;;;;;7.25;2.47;;;20.30;99.90;;;;;;5111395;28;20501;-77
2022/05/17 08:22:37;;;;;;;8.15;2.42;;;20.20;99.90;;;;;;5110918;28;20078;-78
2022/05/17 08:27:48;;;;;;;6.28;2.00;;;20.40;99.90;;;;;;5111253;28;20166;-77
2022/05/17 08:30:20;;;;;;;6.20;1.95;;;20.50;99.90;;;;;;5077605;28;20546;-78
2022/05/17 08:35:35;;;;;;;7.85;2.65;;;21.00;99.90;;;;;;5110951;28;20044;-78
2022/05/17 08:38:00;;;;;;;6.10;2.30;;;21.10;99.90;;;;;;5110568;28;20186;-77
2022/05/17 08:40:28;;;;;;;9.65;2.40;;;21.10;99.90;;;;;;5110793;28;20122;-78
2022/05/17 08:43:23;;;;;;;3.50;1.75;;;21.00;99.90;;;;;;5111136;28;20039;-78
2022/05/17 08:46:23;;;;;;;7.78;2.53;;;21.40;99.90;;;;;;5110662;28;20050;-78
2022/05/17 08:49:10;;;;;;;5.65;2.00;;;21.20;99.90;;;;;;5107728;28;20495;-78
2022/05/17 08:52:01;;;;;;;6.65;2.42;;;21.50;99.90;;;;;;5098016;28;20486;-78
2022/05/17 08:54:41;;;;;;;7.20;2.72;;;21.60;99.90;;;;;;5114815;28;20046;-78
2022/05/17 08:57:30;;;;;;;4.88;1.67;;;21.60;99.90;;;;;;5114888;28;20036;-77
2022/05/17 08:59:58;;;;;;;8.85;2.35;;;22.00;99.90;;;;;;5114336;28;20130;-77
2022/05/17 09:03:05;;;;;;;6.10;2.60;;;21.80;99.90;;;;;;5097837;28;20458;-78
2022/05/17 09:05:48;;;;;;;7.25;2.35;;;21.50;99.90;;;;;;5100774;28;20052;-78
2022/05/17 09:08:17;;;;;;;8.05;2.22;;;21.40;99.90;;;;;;5114750;28;20047;-78
2022/05/17 09:10:50;;;;;;;6.43;2.45;;;21.50;99.90;;;;;;5114731;28;20096;-78
2022/05/17 09:13:26;;;;;;;10.85;3.13;;;21.60;99.90;;;;;;5097637;28;20044;-78
2022/05/17 09:15:56;;;;;;;8.15;2.28;;;21.60;99.90;;;;;;5114487;28;20054;-78
2022/05/17 09:18:23;;;;;;;5.15;1.92;;;21.70;99.90;;;;;;5114326;28;20122;-69
2022/05/17 09:20:50;;;;;;;7.63;2.53;;;22.00;99.90;;;;;;5096895;28;20039;-69
2022/05/17 09:23:16;;;;;;;7.90;2.00;;;21.90;99.90;;;;;;5115368;28;20502;-69
2022/05/17 09:25:56;;;;;;;9.45;2.22;;;22.20;99.90;;;;;;5114265;28;20130;-78
2022/05/17 09:28:25;;;;;;;6.53;2.20;;;21.90;99.90;;;;;;5097385;28;20076;-78
2022/05/17 09:31:12;;;;;;;3.78;1.45;;;21.50;99.90;;;;;;5114704;28;20132;-77
2022/05/17 09:33:40;;;;;;;5.03;1.48;;;22.10;99.90;;;;;;5114358;28;20078;-77
2022/05/17 09:36:08;;;;;;;7.32;2.00;;;22.30;99.90;;;;;;5114216;28;20047;-77
2022/05/17 09:38:39;;;;;;;9.05;2.67;;;22.40;99.90;;;;;;5114331;28;20523;-78
2022/05/17 09:41:11;;;;;;;5.72;2.03;;;22.30;99.90;;;;;;5114357;28;20356;-78
2022/05/17 09:43:46;;;;;;;9.98;2.25;;;22.30;99.90;;;;;;5113889;28;20470;-78
2022/05/17 09:46:17;;;;;;;5.80;1.48;;;22.50;99.90;;;;;;5097250;28;20043;-78
2022/05/17 09:54:47;;;;;;;7.50;2.38;;;23.10;98.10;;;;;;5114181;28;20066;-78
2022/05/17 09:57:30;;;;;;;6.32;1.98;;;22.70;97.40;;;;;;5113795;28;20615;-78
2022/05/17 10:00:22;;;;;;;6.30;2.05;;;22.50;98.70;;;;;;5095969;28;20051;-77
2022/05/17 10:02:48;;;;;;;7.03;1.60;;;22.10;99.20;;;;;;5113676;28;20089;-78
2022/05/17 10:05:17;;;;;;;6.93;1.90;;;22.50;99.10;;;;;;5113953;28;20075;-78
2022/05/17 10:07:49;;;;;;;4.88;1.83;;;22.70;98.60;;;;;;5113711;28;20039;-77
2022/05/17 10:10:32;;;;;;;4.32;1.63;;;23.00;98.40;;;;;;5113238;28;20047;-78
2022/05/17 10:13:24;;;;;;;6.18;1.90;;;23.20;96.40;;;;;;5114662;28;20053;-78
2022/05/17 10:16:01;;;;;;;7.82;2.00;;;23.10;98.20;;;;;;5113372;28;20043;-77
2022/05/17 10:18:35;;;;;;;6.75;2.00;;;23.50;96.40;;;;;;5113506;28;20043;-77
2022/05/17 10:21:43;;;;;;;4.25;1.45;;;23.10;96.10;;;;;;5113244;28;20043;-77
2022/05/17 10:24:43;;;;;;;4.45;1.50;;;23.70;96.20;;;;;;5096497;28;20039;-78
2022/05/17 10:27:15;;;;;;;4.93;1.70;;;24.00;95.70;;;;;;5113380;28;20393;-78
2022/05/17 10:29:53;;;;;;;4.20;1.65;;;24.20;95.50;;;;;;5095867;28;20067;-78
2022/05/17 10:32:20;;;;;;;3.05;1.10;;;24.10;93.60;;;;;;5112832;28;20044;-78
2022/05/17 10:34:59;;;;;;;5.18;1.70;;;24.50;94.60;;;;;;5113149;28;20086;-77
2022/05/17 10:37:44;;;;;;;4.22;1.65;;;24.60;93.30;;;;;;5113140;28;20126;-78
2022/05/17 10:40:18;;;;;;;4.93;1.57;;;24.70;92.50;;;;;;5112925;28;20399;-78
2022/05/17 10:42:44;;;;;;;5.68;1.38;;;24.90;91.90;;;;;;5095881;28;20039;-78
2022/05/17 10:45:20;;;;;;;4.40;1.48;;;24.70;92.00;;;;;;5112497;28;20035;-77
2022/05/17 10:47:59;;;;;;;4.60;1.40;;;23.70;92.50;;;;;;5095473;28;20071;-77
2022/05/17 10:51:05;;;;;;;5.22;1.38;;;23.50;92.90;;;;;;5112644;28;20383;-76
2022/05/17 10:53:39;;;;;;;4.13;1.55;;;23.70;93.90;;;;;;5112287;28;20040;-76
2022/05/17 10:56:11;;;;;;;4.97;1.40;;;24.00;93.40;;;;;;5112344;28;20538;-76
2022/05/17 10:58:55;;;;;;;4.45;1.23;;;24.30;93.10;;;;;;5112028;28;20108;-76
2022/05/17 11:01:55;;;;;;;4.00;1.25;;;24.70;92.90;;;;;;5112210;28;20051;-76
2022/05/17 11:04:29;;;;;;;4.22;1.27;;;24.80;93.00;;;;;;5112363;28;20047;-77
2022/05/17 11:07:20;;;;;;;5.28;1.70;;;24.40;92.90;;;;;;5112190;28;20043;-76
2022/05/17 11:10:27;;;;;;;5.88;1.42;;;24.20;92.50;;;;;;5095701;28;20074;-77
2022/05/17 11:13:03;;;;;;;4.93;1.52;;;23.50;92.60;;;;;;5111284;28;20051;-77
2022/05/17 11:15:35;;;;;;;6.85;1.98;;;23.40;92.80;;;;;;5112005;28;20126;-76
2022/05/17 11:18:29;;;;;;;4.63;1.33;;;23.20;93.50;;;;;;5111850;28;20099;-76
2022/05/17 11:20:59;;;;;;;3.10;1.02;;;23.70;92.60;;;;;;5104426;28;20132;-77
2022/05/17 11:23:45;;;;;;;3.60;1.00;;;23.80;90.50;;;;;;5111834;28;20047;-76
2022/05/17 11:26:33;;;;;;;2.42;1.00;;;23.40;90.60;;;;;;5111893;28;20036;-76
2022/05/17 11:29:08;;;;;;;3.55;1.30;;;23.00;91.50;;;;;;5112108;28;20051;-77
2022/05/17 11:31:46;;;;;;;4.60;1.60;;;23.20;92.40;;;;;;5095001;28;20082;-77
2022/05/17 11:34:26;;;;;;;2.92;1.10;;;23.10;92.80;;;;;;5111648;28;20082;-77
2022/05/17 11:36:54;;;;;;;1.70;0.70;;;23.80;92.50;;;;;;5111735;28;20566;-77
2022/05/17 11:39:31;;;;;;;4.70;1.05;;;23.90;92.00;;;;;;5094835;28;20036;-77
2022/05/17 11:42:27;;;;;;;5.03;1.55;;;24.20;89.20;;;;;;5111527;28;20487;-77
2022/05/17 11:44:53;;;;;;;2.88;0.90;;;24.80;88.70;;;;;;5111591;28;20123;-77
2022/05/17 11:47:33;;;;;;;3.05;0.95;;;25.00;81.50;;;;;;5111618;28;20050;-77
2022/05/17 11:50:22;;;;;;;3.38;0.98;;;25.30;81.90;;;;;;5111735;28;20124;-77
2022/05/17 11:53:16;;;;;;;4.75;1.30;;;25.30;83.50;;;;;;5105969;28;20474;-77
2022/05/17 11:56:13;;;;;;;5.00;1.50;;;25.30;86.90;;;;;;5110924;28;20050;-77
2022/05/17 11:58:42;;;;;;;5.13;1.27;;;24.90;86.20;;;;;;5111252;28;20062;-77
2022/05/17 12:01:31;;;;;;;6.53;1.52;;;24.50;84.40;;;;;;5111554;28;20124;-77
2022/05/17 12:04:00;;;;;;;4.82;1.15;;;24.30;86.60;;;;;;5111161;28;20045;-77
2022/05/17 12:06:41;;;;;;;5.10;1.48;;;24.60;87.30;;;;;;5094524;28;20072;-77
2022/05/17 12:09:55;;;;;;;3.50;1.20;;;24.80;86.40;;;;;;5111030;28;20036;-77
2022/05/17 12:12:36;;;;;;;4.43;1.30;;;25.40;87.00;;;;;;5108156;28;20081;-77
2022/05/17 12:15:29;;;;;;;4.00;1.25;;;25.90;84.70;;;;;;5111238;28;20083;-77
2022/05/17 12:18:17;;;;;;;3.83;0.90;;;25.80;84.70;;;;;;5093990;28;20039;-77
2022/05/17 12:20:51;;;;;;;2.92;1.00;;;26.20;85.40;;;;;;5110978;28;20089;-77
2022/05/17 12:23:34;;;;;;;3.15;1.17;;;26.50;86.00;;;;;;5111001;28;20050;-76
2022/05/17 12:26:06;;;;;;;5.68;1.50;;;26.10;83.00;;;;;;5093797;28;20039;-77
2022/05/17 12:28:37;;;;;;;4.00;1.13;;;25.60;82.80;;;;;;5110701;28;20268;-76
2022/05/17 12:31:08;;;;;;;4.32;1.38;;;25.60;83.80;;;;;;5110963;28;20406;-77
2022/05/17 12:33:43;;;;;;;3.42;1.25;;;25.70;82.10;;;;;;5111069;28;20429;-76
2022/05/17 12:36:28;;;;;;;4.40;1.30;;;25.80;83.00;;;;;;5110816;28;20047;-77
2022/05/17 12:44:42;;;;;;;3.05;0.90;;;26.50;75.80;;;;;;5110720;28;20047;-77
2022/05/17 12:47:13;;;;;;;3.10;1.05;;;26.80;75.30;;;;;;5110696;28;20173;-78
2022/05/17 12:49:41;;;;;;;3.25;1.00;;;27.00;76.70;;;;;;5094302;28;20439;-77
2022/05/17 12:52:41;;;;;;;2.83;1.00;;;26.70;74.20;;;;;;5110652;28;20122;-77
2022/05/17 12:55:11;;;;;;;1.73;0.60;;;26.60;74.00;;;;;;5088473;28;20062;-77
2022/05/17 12:57:39;;;;;;;3.35;0.85;;;26.90;72.80;;;;;;5110562;28;20046;-77
2022/05/17 13:00:25;;;;;;;2.85;0.90;;;27.00;72.00;;;;;;5093474;28;20052;-77
2022/05/17 13:02:58;;;;;;;;;;;26.90;71.10;;;;;;5111225;28;20509;-77
2022/05/17 13:05:36;;;;;;;2.47;0.82;;;26.80;69.70;;;;;;5110794;28;19962;-78
2022/05/17 13:08:10;;;;;;;2.28;0.90;;;27.00;69.80;;;;;;5093595;28;20040;-77
2022/05/17 13:10:39;;;;;;;3.35;1.00;;;26.90;69.60;;;;;;5110676;28;20368;-77
2022/05/17 13:13:18;;;;;;;2.22;0.73;;;27.00;68.90;;;;;;5110505;28;20402;-76
2022/05/17 13:15:47;;;;;;;2.40;0.90;;;26.90;70.40;;;;;;5110273;28;20506;-78
2022/05/17 13:18:15;;;;;;;3.10;1.00;;;27.00;69.00;;;;;;5110230;28;20039;-77
2022/05/17 13:20:40;;;;;;;4.80;1.23;;;26.90;67.40;;;;;;5110211;28;20051;-76
2022/05/17 13:23:07;;;;;;;2.72;1.17;;;26.20;67.70;;;;;;5110315;28;20070;-77
2022/05/17 13:25:39;;;;;;;2.70;0.73;;;26.00;68.70;;;;;;5110465;28;20042;-77
2022/05/17 13:28:07;;;;;;;1.55;0.70;;;26.00;71.50;;;;;;5110029;28;20089;-77
2022/05/17 13:30:38;;;;;;;3.55;1.27;;;26.20;70.20;;;;;;5110583;28;20046;-77
2022/05/17 13:33:11;;;;;;;4.65;1.40;;;26.20;70.50;;;;;;5110389;28;20502;-77
2022/05/17 13:35:40;;;;;;;5.10;1.35;;;26.00;70.60;;;;;;5094667;28;20363;-77